createdAt,value
2022-12-25T00:00:03.634Z,71.30
2022-12-25T00:01:04.676Z,66.80
2022-12-25T00:02:03.646Z,76.60
2022-12-25T00:03:03.685Z,88.20
2022-12-25T00:04:03.727Z,64.80
2022-12-25T00:05:03.588Z,71.90
2022-12-25T00:06:03.619Z,68.70
2022-12-25T00:07:03.574Z,64.20
2022-12-25T00:08:03.592Z,60.50
2022-12-25T00:09:03.539Z,59.50
2022-12-25T00:10:03.555Z,60.90
2022-12-25T00:11:03.524Z,63.60
2022-12-25T00:12:04.500Z,56.00
2022-12-25T00:13:03.537Z,59.90
2022-12-25T00:14:03.503Z,56.50
2022-12-25T00:15:03.542Z,73.50
2022-12-25T00:16:03.489Z,67.90
2022-12-25T00:17:03.445Z,64.40
2022-12-25T00:18:03.464Z,63.40
2022-12-25T00:19:03.437Z,68.80
2022-12-25T00:20:03.409Z,60.70
2022-12-25T00:21:03.413Z,59.90
2022-12-25T00:22:03.389Z,74.40
2022-12-25T00:23:03.382Z,93.70
2022-12-25T00:24:03.384Z,57.70
2022-12-25T00:25:03.354Z,63.20
2022-12-25T00:26:03.377Z,66.70
2022-12-25T00:27:03.379Z,65.50
2022-12-25T00:28:03.333Z,72.00
2022-12-25T00:29:03.325Z,64.60
2022-12-25T00:30:03.297Z,82.10
2022-12-25T00:31:03.306Z,66.30
2022-12-25T00:32:03.331Z,70.30
2022-12-25T00:33:03.276Z,70.90
2022-12-25T00:34:03.260Z,79.90
2022-12-25T00:35:03.233Z,87.70
2022-12-25T00:36:03.257Z,67.00
2022-12-25T00:37:03.226Z,59.50
2022-12-25T00:38:03.226Z,70.90
2022-12-25T00:39:03.217Z,87.20
2022-12-25T00:40:03.195Z,403.40
2022-12-25T00:41:03.258Z,261.70
2022-12-25T00:42:03.154Z,206.50
2022-12-25T00:43:03.178Z,123.90
2022-12-25T00:44:03.147Z,101.60
2022-12-25T00:45:03.136Z,83.50
2022-12-25T00:46:03.246Z,92.90
2022-12-25T00:47:03.200Z,83.50
2022-12-25T00:48:03.125Z,85.30
2022-12-25T00:49:03.102Z,86.60
2022-12-25T00:50:03.076Z,80.60
2022-12-25T00:51:03.069Z,78.80
2022-12-25T00:52:03.051Z,75.20
2022-12-25T00:53:03.041Z,86.10
2022-12-25T00:54:03.045Z,75.90
2022-12-25T00:55:03.033Z,79.30
2022-12-25T00:56:03.028Z,73.90
2022-12-25T00:57:02.985Z,72.00
2022-12-25T00:58:02.974Z,72.30
2022-12-25T00:59:03.009Z,66.00
2022-12-25T01:00:02.968Z,69.30
2022-12-25T01:01:03.134Z,76.00
2022-12-25T01:02:03.031Z,62.10
2022-12-25T01:03:03.069Z,75.10
2022-12-25T01:04:02.912Z,73.20
2022-12-25T01:05:02.909Z,81.50
2022-12-25T01:06:02.891Z,72.90
2022-12-25T01:07:02.886Z,69.20
2022-12-25T01:08:02.890Z,69.00
2022-12-25T01:09:02.865Z,65.70
2022-12-25T01:10:02.870Z,64.90
2022-12-25T01:11:02.830Z,71.80
2022-12-25T01:12:02.822Z,68.70
2022-12-25T01:13:02.810Z,60.70
2022-12-25T01:14:02.783Z,73.10
2022-12-25T01:15:02.815Z,64.40
2022-12-25T01:16:02.800Z,60.10
2022-12-25T01:17:02.784Z,75.50
2022-12-25T01:18:07.442Z,67.20
2022-12-25T01:19:04.727Z,74.90
2022-12-25T01:20:02.728Z,69.00
2022-12-25T01:21:02.703Z,71.10
2022-12-25T01:22:02.729Z,66.40
2022-12-25T01:23:02.715Z,65.40
2022-12-25T01:24:02.671Z,65.40
2022-12-25T01:25:02.686Z,66.20
2022-12-25T01:26:02.657Z,68.50
2022-12-25T01:27:02.660Z,69.50
2022-12-25T01:28:02.657Z,69.30
2022-12-25T01:29:02.650Z,72.20
2022-12-25T01:30:02.752Z,70.70
2022-12-25T01:31:02.597Z,71.60
2022-12-25T01:32:02.656Z,82.90
2022-12-25T01:33:02.625Z,70.50
2022-12-25T01:34:02.596Z,68.40
2022-12-25T01:35:02.557Z,70.40
2022-12-25T01:36:02.563Z,67.20
2022-12-25T01:37:02.561Z,67.80
2022-12-25T01:38:02.552Z,63.20
2022-12-25T01:39:02.541Z,64.00
2022-12-25T01:40:02.499Z,65.40
2022-12-25T01:41:02.524Z,58.70
2022-12-25T01:42:02.483Z,52.40
2022-12-25T01:43:02.479Z,64.80
2022-12-25T01:44:02.493Z,70.80
2022-12-25T01:45:02.436Z,53.30
2022-12-25T01:46:02.452Z,71.60
2022-12-25T01:47:02.446Z,63.60
2022-12-25T01:48:02.607Z,67.80
2022-12-25T01:49:02.422Z,62.90
2022-12-25T01:50:02.418Z,58.00
2022-12-25T01:51:02.377Z,62.90
2022-12-25T01:52:02.360Z,63.20
2022-12-25T01:53:02.393Z,64.20
2022-12-25T01:54:02.396Z,59.20
2022-12-25T01:55:02.337Z,62.10
2022-12-25T01:56:02.326Z,62.50
2022-12-25T01:57:02.281Z,58.00
2022-12-25T01:58:03.322Z,71.00
2022-12-25T01:59:02.285Z,56.30
2022-12-25T02:00:02.320Z,57.90
2022-12-25T02:01:02.312Z,57.30
2022-12-25T02:02:02.385Z,57.30
2022-12-25T02:03:02.321Z,66.00
2022-12-25T02:04:02.271Z,68.70
2022-12-25T02:05:02.262Z,64.00
2022-12-25T02:06:02.222Z,60.20
2022-12-25T02:07:02.189Z,72.30
2022-12-25T02:08:02.219Z,62.90
2022-12-25T02:09:02.176Z,65.80
2022-12-25T02:10:02.154Z,70.40
2022-12-25T02:11:02.141Z,58.60
2022-12-25T02:12:02.179Z,59.20
2022-12-25T02:13:02.129Z,66.80
2022-12-25T02:14:02.110Z,60.00
2022-12-25T02:15:05.770Z,72.70
2022-12-25T02:16:03.144Z,97.70
2022-12-25T02:17:02.169Z,78.90
2022-12-25T02:18:02.094Z,80.30
2022-12-25T02:19:02.050Z,74.70
2022-12-25T02:20:02.063Z,70.30
2022-12-25T02:21:02.051Z,63.00
2022-12-25T02:22:02.032Z,67.60
2022-12-25T02:23:02.053Z,73.80
2022-12-25T02:24:02.108Z,61.40
2022-12-25T02:25:02.014Z,76.10
2022-12-25T02:26:02.002Z,80.10
2022-12-25T02:27:01.988Z,102.80
2022-12-25T02:28:01.965Z,89.70
2022-12-25T02:29:01.973Z,131.50
2022-12-25T02:30:01.927Z,115.50
2022-12-25T02:31:01.918Z,73.30
2022-12-25T02:32:01.952Z,144.50
2022-12-25T02:33:01.905Z,73.40
2022-12-25T02:34:01.934Z,82.00
2022-12-25T02:35:01.910Z,63.00
2022-12-25T02:36:01.902Z,76.00
2022-12-25T02:37:02.563Z,63.50
2022-12-25T02:38:01.833Z,67.10
2022-12-25T02:39:01.852Z,64.50
2022-12-25T02:40:01.840Z,58.30
2022-12-25T02:41:01.808Z,73.50
2022-12-25T02:42:01.795Z,63.20
2022-12-25T02:43:01.792Z,76.00
2022-12-25T02:44:01.779Z,72.90
2022-12-25T02:45:01.780Z,62.60
2022-12-25T02:46:01.806Z,68.30
2022-12-25T02:47:01.806Z,70.70
2022-12-25T02:48:01.747Z,65.60
2022-12-25T02:49:01.716Z,70.60
2022-12-25T02:50:01.798Z,59.70
2022-12-25T02:51:01.750Z,69.00
2022-12-25T02:52:01.721Z,66.10
2022-12-25T02:53:01.704Z,68.70
2022-12-25T02:54:01.656Z,73.00
2022-12-25T02:55:01.649Z,64.90
2022-12-25T02:56:01.636Z,66.00
2022-12-25T02:57:01.709Z,62.10
2022-12-25T02:58:01.601Z,57.80
2022-12-25T02:59:01.615Z,54.80
2022-12-25T03:00:01.581Z,65.60
2022-12-25T03:01:01.599Z,61.30
2022-12-25T03:02:01.703Z,60.20
2022-12-25T03:03:01.588Z,51.90
2022-12-25T03:04:01.563Z,54.40
2022-12-25T03:05:01.533Z,52.60
2022-12-25T03:06:01.516Z,54.80
2022-12-25T03:07:01.505Z,52.20
2022-12-25T03:08:01.555Z,66.60
2022-12-25T03:09:01.544Z,48.20
2022-12-25T03:10:01.461Z,52.30
2022-12-25T03:11:02.462Z,52.40
2022-12-25T03:12:01.496Z,54.20
2022-12-25T03:13:01.449Z,54.10
2022-12-25T03:14:01.417Z,56.30
2022-12-25T03:15:01.417Z,49.90
2022-12-25T03:16:01.405Z,46.80
2022-12-25T03:17:01.489Z,55.00
2022-12-25T03:18:01.398Z,55.30
2022-12-25T03:19:01.378Z,58.40
2022-12-25T03:20:01.362Z,55.90
2022-12-25T03:21:01.351Z,56.00
2022-12-25T03:22:01.334Z,54.60
2022-12-25T03:23:01.422Z,59.60
2022-12-25T03:24:01.334Z,55.40
2022-12-25T03:25:01.341Z,50.70
2022-12-25T03:26:01.309Z,52.10
2022-12-25T03:27:01.289Z,50.00
2022-12-25T03:28:01.277Z,55.60
2022-12-25T03:29:01.312Z,53.60
2022-12-25T03:30:01.252Z,55.90
2022-12-25T03:31:01.306Z,50.20
2022-12-25T03:32:01.224Z,49.20
2022-12-25T03:33:09.557Z,53.50
2022-12-25T03:34:03.238Z,51.80
2022-12-25T03:35:01.203Z,49.00
2022-12-25T03:36:01.192Z,46.70
2022-12-25T03:37:01.161Z,51.00
2022-12-25T03:38:01.167Z,52.70
2022-12-25T03:39:01.192Z,47.90
2022-12-25T03:40:01.166Z,56.60
2022-12-25T03:41:01.126Z,49.50
2022-12-25T03:42:01.122Z,50.00
2022-12-25T03:43:01.131Z,53.20
2022-12-25T03:44:01.091Z,53.30
2022-12-25T03:45:01.127Z,47.60
2022-12-25T03:46:01.125Z,47.90
2022-12-25T03:47:01.092Z,54.50
2022-12-25T03:48:01.076Z,60.70
2022-12-25T03:49:01.061Z,47.80
2022-12-25T03:50:01.039Z,53.10
2022-12-25T03:51:01.987Z,50.90
2022-12-25T03:52:01.020Z,44.60
2022-12-25T03:53:00.993Z,53.60
2022-12-25T03:54:00.996Z,51.20
2022-12-25T03:55:00.977Z,54.20
2022-12-25T03:56:00.984Z,61.60
2022-12-25T03:57:00.967Z,59.80
2022-12-25T03:58:00.957Z,67.50
2022-12-25T03:59:00.928Z,54.50
2022-12-25T04:00:00.942Z,55.00
2022-12-25T04:01:01.025Z,59.30
2022-12-25T04:02:01.025Z,54.70
2022-12-25T04:03:01.002Z,49.40
2022-12-25T04:04:00.874Z,52.10
2022-12-25T04:05:00.857Z,55.10
2022-12-25T04:06:00.862Z,61.80
2022-12-25T04:07:01.432Z,59.40
2022-12-25T04:08:00.865Z,57.30
2022-12-25T04:09:00.959Z,68.70
2022-12-25T04:10:00.802Z,55.30
2022-12-25T04:11:00.803Z,54.90
2022-12-25T04:12:03.030Z,62.70
2022-12-25T04:13:01.822Z,51.70
2022-12-25T04:14:00.755Z,56.60
2022-12-25T04:15:00.786Z,48.50
2022-12-25T04:16:00.888Z,48.90
2022-12-25T04:17:00.721Z,57.50
2022-12-25T04:18:00.742Z,57.60
2022-12-25T04:19:01.748Z,55.60
2022-12-25T04:20:00.695Z,50.20
2022-12-25T04:21:00.667Z,52.20
2022-12-25T04:22:00.668Z,49.70
2022-12-25T04:23:00.685Z,58.20
2022-12-25T04:24:32.557Z,65.70
2022-12-25T04:25:00.634Z,58.50
2022-12-25T04:26:00.619Z,57.60
2022-12-25T04:27:00.603Z,57.90
2022-12-25T04:28:00.621Z,50.90
2022-12-25T04:29:01.585Z,57.40
2022-12-25T04:30:00.640Z,65.10
2022-12-25T04:31:00.593Z,57.80
2022-12-25T04:32:00.551Z,56.40
2022-12-25T04:33:00.585Z,49.20
2022-12-25T04:34:00.547Z,52.30
2022-12-25T04:35:00.520Z,48.10
2022-12-25T04:36:00.551Z,48.30
2022-12-25T04:37:00.515Z,53.00
2022-12-25T04:38:00.486Z,53.20
2022-12-25T04:39:00.485Z,49.90
2022-12-25T04:40:00.523Z,60.10
2022-12-25T04:41:00.458Z,55.80
2022-12-25T04:42:00.437Z,53.50
2022-12-25T04:43:00.423Z,52.30
2022-12-25T04:44:00.425Z,46.90
2022-12-25T04:45:00.452Z,53.00
2022-12-25T04:46:00.458Z,48.20
2022-12-25T04:47:02.525Z,56.30
2022-12-25T04:48:01.366Z,60.30
2022-12-25T04:49:00.346Z,51.60
2022-12-25T04:50:00.354Z,56.10
2022-12-25T04:51:00.328Z,53.50
2022-12-25T04:52:00.313Z,53.70
2022-12-25T04:53:00.313Z,57.30
2022-12-25T04:54:00.289Z,55.10
2022-12-25T04:55:00.291Z,64.30
2022-12-25T04:56:00.269Z,51.30
2022-12-25T04:57:00.321Z,48.30
2022-12-25T04:58:00.295Z,55.80
2022-12-25T04:59:00.286Z,54.10
2022-12-25T05:00:00.269Z,56.10
2022-12-25T05:01:00.234Z,62.80
2022-12-25T05:02:00.383Z,57.40
2022-12-25T05:03:00.516Z,60.60
2022-12-25T05:04:00.238Z,52.30
2022-12-25T05:05:00.241Z,56.80
2022-12-25T05:06:00.170Z,60.60
2022-12-25T05:07:00.158Z,54.50
2022-12-25T05:08:00.133Z,56.10
2022-12-25T05:09:00.128Z,50.70
2022-12-25T05:10:00.123Z,50.80
2022-12-25T05:11:00.130Z,52.90
2022-12-25T05:12:00.103Z,60.50
2022-12-25T05:13:00.109Z,55.70
2022-12-25T05:14:00.116Z,49.50
2022-12-25T05:15:00.129Z,54.00
2022-12-25T05:16:00.076Z,61.40
2022-12-25T05:17:00.075Z,50.90
2022-12-25T05:18:00.028Z,56.60
2022-12-25T05:19:00.026Z,54.10
2022-12-25T05:20:00.000Z,54.40
2022-12-25T05:20:59.984Z,54.20
2022-12-25T05:22:00.003Z,56.10
2022-12-25T05:22:59.959Z,54.90
2022-12-25T05:23:59.958Z,59.20
2022-12-25T05:24:59.945Z,59.20
2022-12-25T05:26:00.000Z,57.90
2022-12-25T05:26:59.937Z,56.60
2022-12-25T05:27:59.928Z,64.10
2022-12-25T05:28:59.893Z,62.00
2022-12-25T05:29:59.888Z,72.30
2022-12-25T05:30:59.986Z,64.00
2022-12-25T05:31:59.883Z,59.80
2022-12-25T05:32:59.861Z,60.70
2022-12-25T05:33:59.871Z,53.30
2022-12-25T05:34:59.861Z,55.40
2022-12-25T05:35:59.845Z,63.80
2022-12-25T05:36:59.825Z,63.40
2022-12-25T05:37:59.821Z,58.30
2022-12-25T05:38:59.817Z,60.00
2022-12-25T05:39:59.805Z,49.40
2022-12-25T05:40:59.773Z,49.70
2022-12-25T05:41:59.795Z,68.00
2022-12-25T05:42:59.812Z,57.30
2022-12-25T05:43:59.789Z,55.40
2022-12-25T05:44:59.748Z,62.40
2022-12-25T05:45:59.741Z,53.20
2022-12-25T05:46:59.757Z,47.10
2022-12-25T05:47:59.702Z,51.10
2022-12-25T05:48:59.707Z,66.40
2022-12-25T05:49:59.678Z,61.30
2022-12-25T05:50:59.700Z,50.60
2022-12-25T05:51:59.661Z,65.10
2022-12-25T05:53:05.962Z,66.50
2022-12-25T05:54:01.633Z,46.80
2022-12-25T05:54:59.628Z,50.90
2022-12-25T05:55:59.642Z,61.50
2022-12-25T05:56:59.627Z,46.60
2022-12-25T05:57:59.581Z,59.60
2022-12-25T05:58:59.570Z,70.70
2022-12-25T05:59:59.588Z,59.20
2022-12-25T06:00:59.631Z,67.50
2022-12-25T06:01:59.655Z,59.40
2022-12-25T06:02:59.626Z,64.70
2022-12-25T06:03:59.682Z,58.00
2022-12-25T06:04:59.530Z,53.70
2022-12-25T06:05:59.596Z,60.20
2022-12-25T06:06:59.512Z,69.60
2022-12-25T06:08:00.522Z,61.70
2022-12-25T06:08:59.511Z,55.70
2022-12-25T06:09:59.446Z,69.20
2022-12-25T06:10:59.504Z,65.50
2022-12-25T06:11:59.500Z,69.40
2022-12-25T06:12:59.419Z,74.80
2022-12-25T06:13:59.423Z,67.50
2022-12-25T06:14:59.434Z,73.10
2022-12-25T06:15:59.475Z,103.10
2022-12-25T06:16:59.472Z,91.00
2022-12-25T06:17:59.369Z,78.10
2022-12-25T06:18:59.376Z,76.50
2022-12-25T06:19:59.358Z,86.00
2022-12-25T06:20:59.347Z,85.50
2022-12-25T06:21:59.398Z,72.80
2022-12-25T06:22:59.334Z,82.20
2022-12-25T06:24:00.464Z,75.80
2022-12-25T06:24:59.322Z,76.70
2022-12-25T06:25:59.328Z,82.30
2022-12-25T06:26:59.287Z,90.90
2022-12-25T06:27:59.312Z,73.50
2022-12-25T06:28:59.324Z,68.60
2022-12-25T06:29:59.344Z,59.70
2022-12-25T06:30:59.238Z,70.90
2022-12-25T06:31:59.299Z,82.60
2022-12-25T06:32:59.274Z,77.70
2022-12-25T06:33:59.205Z,42.00
2022-12-25T06:34:59.279Z,42.60
2022-12-25T06:35:59.217Z,68.20
2022-12-25T06:36:59.175Z,67.80
2022-12-25T06:37:59.203Z,58.10
2022-12-25T06:38:59.174Z,75.90
2022-12-25T06:39:59.130Z,68.80
2022-12-25T06:40:59.132Z,83.30
2022-12-25T06:41:59.113Z,91.00
2022-12-25T06:42:59.091Z,80.70
2022-12-25T06:43:59.115Z,133.80
2022-12-25T06:44:59.203Z,95.80
2022-12-25T06:45:59.089Z,79.50
2022-12-25T06:46:59.061Z,89.30
2022-12-25T06:47:59.152Z,97.00
2022-12-25T06:48:59.044Z,277.80
2022-12-25T06:49:59.018Z,75.40
2022-12-25T06:50:59.027Z,114.00
2022-12-25T06:51:58.987Z,262.10
2022-12-25T06:52:58.963Z,117.00
2022-12-25T06:53:59.038Z,92.20
2022-12-25T06:54:58.967Z,74.40
2022-12-25T06:55:58.960Z,85.40
2022-12-25T06:56:58.940Z,92.70
2022-12-25T06:57:58.922Z,91.90
2022-12-25T06:58:58.927Z,119.60
2022-12-25T06:59:58.904Z,119.60
2022-12-25T07:00:58.960Z,110.20
2022-12-25T07:01:59.067Z,108.90
2022-12-25T07:02:59.014Z,80.10
2022-12-25T07:03:58.875Z,205.50
2022-12-25T07:04:58.867Z,136.80
2022-12-25T07:05:58.924Z,161.80
2022-12-25T07:07:04.417Z,151.90
2022-12-25T07:08:00.804Z,99.40
2022-12-25T07:08:58.846Z,129.40
2022-12-25T07:09:58.793Z,147.20
2022-12-25T07:10:58.777Z,178.60
2022-12-25T07:11:58.783Z,111.50
2022-12-25T07:12:58.774Z,147.80
2022-12-25T07:13:58.755Z,126.00
2022-12-25T07:14:58.809Z,101.30
2022-12-25T07:15:58.764Z,95.70
2022-12-25T07:16:58.795Z,116.40
2022-12-25T07:17:58.686Z,107.80
2022-12-25T07:18:58.695Z,88.80
2022-12-25T07:19:58.704Z,134.20
2022-12-25T07:20:58.660Z,100.00
2022-12-25T07:21:58.698Z,140.60
2022-12-25T07:22:58.648Z,109.00
2022-12-25T07:23:58.623Z,110.00
2022-12-25T07:24:58.621Z,107.30
2022-12-25T07:25:58.625Z,90.70
2022-12-25T07:26:58.615Z,114.20
2022-12-25T07:27:58.615Z,142.50
2022-12-25T07:28:58.590Z,120.00
2022-12-25T07:29:58.602Z,117.30
2022-12-25T07:30:58.554Z,129.60
2022-12-25T07:31:58.599Z,140.00
2022-12-25T07:32:58.543Z,219.50
2022-12-25T07:33:58.546Z,263.20
2022-12-25T07:34:58.522Z,166.60
2022-12-25T07:35:58.507Z,190.00
2022-12-25T07:36:58.490Z,192.40
2022-12-25T07:37:58.487Z,194.80
2022-12-25T07:38:58.481Z,170.60
2022-12-25T07:39:58.448Z,169.10
2022-12-25T07:40:58.540Z,329.00
2022-12-25T07:41:58.469Z,385.90
2022-12-25T07:42:58.454Z,303.00
2022-12-25T07:43:58.473Z,246.50
2022-12-25T07:44:58.444Z,216.60
2022-12-25T07:45:58.442Z,396.30
2022-12-25T07:46:58.371Z,112.90
2022-12-25T07:48:04.325Z,171.50
2022-12-25T07:49:00.360Z,136.00
2022-12-25T07:49:58.367Z,96.80
2022-12-25T07:50:58.331Z,126.80
2022-12-25T07:51:58.337Z,135.30
2022-12-25T07:52:58.321Z,106.80
2022-12-25T07:53:58.304Z,93.40
2022-12-25T07:54:58.294Z,86.50
2022-12-25T07:55:58.348Z,107.60
2022-12-25T07:56:58.283Z,103.50
2022-12-25T07:57:58.256Z,101.10
2022-12-25T07:58:58.248Z,87.60
2022-12-25T07:59:58.226Z,88.40
2022-12-25T08:00:58.413Z,97.40
2022-12-25T08:01:58.414Z,88.70
2022-12-25T08:02:58.326Z,85.90
2022-12-25T08:03:58.332Z,90.80
2022-12-25T08:04:58.177Z,88.90
2022-12-25T08:05:58.169Z,92.90
2022-12-25T08:06:58.162Z,84.20
2022-12-25T08:07:58.424Z,94.30
2022-12-25T08:08:58.137Z,100.40
2022-12-25T08:09:58.122Z,91.90
2022-12-25T08:10:58.108Z,91.90
2022-12-25T08:11:58.085Z,98.70
2022-12-25T08:12:58.084Z,105.70
2022-12-25T08:13:58.104Z,91.30
2022-12-25T08:14:58.088Z,98.20
2022-12-25T08:15:58.056Z,74.80
2022-12-25T08:16:58.126Z,78.60
2022-12-25T08:17:58.070Z,80.60
2022-12-25T08:18:58.029Z,70.10
2022-12-25T08:19:58.022Z,81.00
2022-12-25T08:20:58.003Z,87.40
2022-12-25T08:21:58.004Z,73.90
2022-12-25T08:22:57.964Z,85.30
2022-12-25T08:23:57.977Z,76.00
2022-12-25T08:24:58.028Z,71.10
2022-12-25T08:26:04.227Z,73.60
2022-12-25T08:26:59.944Z,74.10
2022-12-25T08:27:57.934Z,76.10
2022-12-25T08:28:57.899Z,79.30
2022-12-25T08:29:57.933Z,69.60
2022-12-25T08:30:57.957Z,74.70
2022-12-25T08:31:57.888Z,69.10
2022-12-25T08:32:57.871Z,80.50
2022-12-25T08:33:57.880Z,67.60
2022-12-25T08:34:57.940Z,55.10
2022-12-25T08:35:57.848Z,49.60
2022-12-25T08:36:57.877Z,52.30
2022-12-25T08:37:57.812Z,51.50
2022-12-25T08:39:02.528Z,52.10
2022-12-25T08:39:59.809Z,52.60
2022-12-25T08:40:57.776Z,50.70
2022-12-25T08:41:57.809Z,68.80
2022-12-25T08:42:57.796Z,99.10
2022-12-25T08:43:57.818Z,57.20
2022-12-25T08:44:57.744Z,58.70
2022-12-25T08:45:57.763Z,76.20
2022-12-25T08:46:57.707Z,70.20
2022-12-25T08:47:57.746Z,50.40
2022-12-25T08:48:57.675Z,50.50
2022-12-25T08:49:57.672Z,58.40
2022-12-25T08:50:57.659Z,53.80
2022-12-25T08:51:57.646Z,65.30
2022-12-25T08:52:57.669Z,56.80
2022-12-25T08:53:57.689Z,49.40
2022-12-25T08:54:57.653Z,59.40
2022-12-25T08:55:57.602Z,50.70
2022-12-25T08:57:02.626Z,57.00
2022-12-25T08:57:59.594Z,56.00
2022-12-25T08:58:57.554Z,55.50
2022-12-25T08:59:57.562Z,85.60
2022-12-25T09:00:57.667Z,76.60
2022-12-25T09:01:57.689Z,75.70
2022-12-25T09:02:57.633Z,113.60
2022-12-25T09:03:57.539Z,92.10
2022-12-25T09:04:57.510Z,93.00
2022-12-25T09:05:57.503Z,98.10
2022-12-25T09:06:57.465Z,95.20
2022-12-25T09:07:57.511Z,87.50
2022-12-25T09:08:57.489Z,42.30
2022-12-25T09:09:57.458Z,43.80
2022-12-25T09:10:57.570Z,46.60
2022-12-25T09:11:57.454Z,46.10
2022-12-25T09:12:57.436Z,37.80
2022-12-25T09:13:57.402Z,41.10
2022-12-25T09:14:57.427Z,42.40
2022-12-25T09:15:57.485Z,34.70
2022-12-25T09:16:57.350Z,35.10
2022-12-25T09:17:57.343Z,36.90
2022-12-25T09:18:57.358Z,36.80
2022-12-25T09:19:57.334Z,39.10
2022-12-25T09:20:57.340Z,38.40
2022-12-25T09:21:57.316Z,35.30
2022-12-25T09:22:57.319Z,43.90
2022-12-25T09:23:57.275Z,30.10
2022-12-25T09:24:57.296Z,29.10
2022-12-25T09:25:57.295Z,39.20
2022-12-25T09:26:57.265Z,37.00
2022-12-25T09:27:57.244Z,35.70
2022-12-25T09:28:57.242Z,41.40
2022-12-25T09:29:57.255Z,31.10
2022-12-25T09:30:57.302Z,34.10
2022-12-25T09:31:57.197Z,33.30
2022-12-25T09:32:57.172Z,35.00
2022-12-25T09:33:57.179Z,49.30
2022-12-25T09:34:57.172Z,32.70
2022-12-25T09:35:57.197Z,37.00
2022-12-25T09:36:57.144Z,33.50
2022-12-25T09:37:57.135Z,33.80
2022-12-25T09:38:57.124Z,29.30
2022-12-25T09:39:57.139Z,36.50
2022-12-25T09:40:57.120Z,29.60
2022-12-25T09:41:57.087Z,33.70
2022-12-25T09:42:57.085Z,32.40
2022-12-25T09:43:57.092Z,34.30
2022-12-25T09:44:57.053Z,39.00
2022-12-25T09:45:57.075Z,34.10
2022-12-25T09:46:57.168Z,43.50
2022-12-25T09:47:57.057Z,44.10
2022-12-25T09:48:57.034Z,42.10
2022-12-25T09:49:57.013Z,35.90
2022-12-25T09:50:57.007Z,36.50
2022-12-25T09:51:56.998Z,32.10
2022-12-25T09:52:57.016Z,36.70
2022-12-25T09:53:56.966Z,36.10
2022-12-25T09:54:56.967Z,32.80
2022-12-25T09:55:56.920Z,36.10
2022-12-25T09:56:56.948Z,32.10
2022-12-25T09:57:56.930Z,35.30
2022-12-25T09:58:56.908Z,40.10
2022-12-25T09:59:56.900Z,37.90
2022-12-25T10:00:56.876Z,35.60
2022-12-25T10:01:56.948Z,36.70
2022-12-25T10:02:57.065Z,37.80
2022-12-25T10:03:56.921Z,40.10
2022-12-25T10:04:56.877Z,41.10
2022-12-25T10:05:56.837Z,40.10
2022-12-25T10:06:56.821Z,36.20
2022-12-25T10:07:56.818Z,38.30
2022-12-25T10:08:56.803Z,40.00
2022-12-25T10:09:56.801Z,37.50
2022-12-25T10:10:56.805Z,37.80
2022-12-25T10:11:56.761Z,30.20
2022-12-25T10:12:56.813Z,34.80
2022-12-25T10:13:56.747Z,26.70
2022-12-25T10:14:56.731Z,32.70
2022-12-25T10:15:56.860Z,33.20
2022-12-25T10:16:56.730Z,41.30
2022-12-25T10:17:56.711Z,32.00
2022-12-25T10:18:56.686Z,30.40
2022-12-25T10:19:56.669Z,32.60
2022-12-25T10:20:56.703Z,36.60
2022-12-25T10:21:56.670Z,32.30
2022-12-25T10:22:56.695Z,29.60
2022-12-25T10:23:56.669Z,32.40
2022-12-25T10:25:29.029Z,24.90
2022-12-25T10:25:56.598Z,28.20
2022-12-25T10:26:56.591Z,31.10
2022-12-25T10:27:56.577Z,28.40
2022-12-25T10:28:56.576Z,25.10
2022-12-25T10:29:56.561Z,30.50
2022-12-25T10:30:56.553Z,27.00
2022-12-25T10:31:56.538Z,28.00
2022-12-25T10:32:56.613Z,30.30
2022-12-25T10:33:56.503Z,32.70
2022-12-25T10:34:56.505Z,35.30
2022-12-25T10:35:56.611Z,29.10
2022-12-25T10:36:56.478Z,36.80
2022-12-25T10:37:56.487Z,28.30
2022-12-25T10:38:56.459Z,31.20
2022-12-25T10:39:56.563Z,31.70
2022-12-25T10:40:56.431Z,37.30
2022-12-25T10:41:56.405Z,32.00
2022-12-25T10:42:56.404Z,34.20
2022-12-25T10:43:56.406Z,28.80
2022-12-25T10:44:56.376Z,33.70
2022-12-25T10:45:56.467Z,29.40
2022-12-25T10:46:56.414Z,36.30
2022-12-25T10:48:03.448Z,30.50
2022-12-25T10:48:58.324Z,30.40
2022-12-25T10:49:56.326Z,32.10
2022-12-25T10:50:56.326Z,26.40
2022-12-25T10:51:56.297Z,29.20
2022-12-25T10:52:56.526Z,29.10
2022-12-25T10:53:56.275Z,28.20
2022-12-25T10:54:56.279Z,34.40
2022-12-25T10:55:56.271Z,29.80
2022-12-25T10:56:56.246Z,35.00
2022-12-25T10:57:56.229Z,32.90
2022-12-25T10:58:56.241Z,28.10
2022-12-25T10:59:56.239Z,39.10
2022-12-25T11:00:56.208Z,40.30
2022-12-25T11:01:56.315Z,38.70
2022-12-25T11:02:56.576Z,36.80
2022-12-25T11:03:56.195Z,38.10
2022-12-25T11:04:56.148Z,36.40
2022-12-25T11:05:56.162Z,49.50
2022-12-25T11:06:56.177Z,53.10
2022-12-25T11:07:56.140Z,40.00
2022-12-25T11:08:56.104Z,37.00
2022-12-25T11:10:02.643Z,33.90
2022-12-25T11:10:58.134Z,40.10
2022-12-25T11:11:56.076Z,35.00
2022-12-25T11:12:56.079Z,35.50
2022-12-25T11:13:56.061Z,47.40
2022-12-25T11:14:56.049Z,33.40
2022-12-25T11:15:56.068Z,34.60
2022-12-25T11:16:56.071Z,37.70
2022-12-25T11:17:56.021Z,39.50
2022-12-25T11:18:56.021Z,40.00
2022-12-25T11:19:56.022Z,44.30
2022-12-25T11:20:55.971Z,40.90
2022-12-25T11:21:56.030Z,43.30
2022-12-25T11:22:55.960Z,47.80
2022-12-25T11:23:56.000Z,52.40
2022-12-25T11:24:56.923Z,44.30
2022-12-25T11:25:55.926Z,59.20
2022-12-25T11:26:55.912Z,51.40
2022-12-25T11:27:55.923Z,55.80
2022-12-25T11:28:55.938Z,54.50
2022-12-25T11:29:55.901Z,60.50
2022-12-25T11:30:55.950Z,46.70
2022-12-25T11:31:55.895Z,56.60
2022-12-25T11:32:56.096Z,50.30
2022-12-25T11:33:55.852Z,52.70
2022-12-25T11:34:55.860Z,47.40
2022-12-25T11:35:56.026Z,37.70
2022-12-25T11:36:55.852Z,47.60
2022-12-25T11:37:55.815Z,52.10
2022-12-25T11:38:55.779Z,60.00
2022-12-25T11:39:55.769Z,58.60
2022-12-25T11:40:55.807Z,50.50
2022-12-25T11:41:55.756Z,60.10
2022-12-25T11:42:55.751Z,51.60
2022-12-25T11:43:55.736Z,55.00
2022-12-25T11:44:55.767Z,44.70
2022-12-25T11:45:55.736Z,40.10
2022-12-25T11:46:55.749Z,42.40
2022-12-25T11:47:55.687Z,52.60
2022-12-25T11:48:55.682Z,60.60
2022-12-25T11:50:00.181Z,43.80
2022-12-25T11:50:57.669Z,44.50
2022-12-25T11:51:55.659Z,54.00
2022-12-25T11:52:55.637Z,47.80
2022-12-25T11:53:55.612Z,46.40
2022-12-25T11:54:55.710Z,41.50
2022-12-25T11:55:55.621Z,54.90
2022-12-25T11:56:55.585Z,41.10
2022-12-25T11:57:55.569Z,40.20
2022-12-25T11:58:55.569Z,40.50
2022-12-25T11:59:55.547Z,34.90
2022-12-25T12:00:55.556Z,46.60
2022-12-25T12:01:55.669Z,43.10
2022-12-25T12:02:55.823Z,55.40
2022-12-25T12:03:55.681Z,45.10
2022-12-25T12:04:55.558Z,40.80
2022-12-25T12:05:55.515Z,45.90
2022-12-25T12:06:55.603Z,40.20
2022-12-25T12:07:55.475Z,47.00
2022-12-25T12:08:55.464Z,41.60
2022-12-25T12:09:56.443Z,40.40
2022-12-25T12:10:55.434Z,46.70
2022-12-25T12:11:55.469Z,45.70
2022-12-25T12:12:55.464Z,43.30
2022-12-25T12:13:55.405Z,48.90
2022-12-25T12:14:55.378Z,49.20
2022-12-25T12:15:56.478Z,54.10
2022-12-25T12:16:55.498Z,45.40
2022-12-25T12:17:55.377Z,50.10
2022-12-25T12:18:55.406Z,48.10
2022-12-25T12:19:55.332Z,44.50
2022-12-25T12:20:55.360Z,49.90
2022-12-25T12:21:55.317Z,49.70
2022-12-25T12:22:55.316Z,44.50
2022-12-25T12:24:02.085Z,46.90
2022-12-25T12:24:56.283Z,45.70
2022-12-25T12:25:55.281Z,55.80
2022-12-25T12:26:55.251Z,44.80
2022-12-25T12:27:59.809Z,50.20
2022-12-25T12:28:56.236Z,46.40
2022-12-25T12:29:55.225Z,40.70
2022-12-25T12:30:55.251Z,46.70
2022-12-25T12:31:55.245Z,48.10
2022-12-25T12:32:55.184Z,50.20
2022-12-25T12:33:55.194Z,45.70
2022-12-25T12:34:55.183Z,44.80
2022-12-25T12:35:55.155Z,51.70
2022-12-25T12:36:55.143Z,52.10
2022-12-25T12:37:55.158Z,55.20
2022-12-25T12:38:55.180Z,53.50
2022-12-25T12:39:55.117Z,45.50
2022-12-25T12:40:55.117Z,40.70
2022-12-25T12:41:55.099Z,44.30
2022-12-25T12:42:55.072Z,42.40
2022-12-25T12:43:55.078Z,41.30
2022-12-25T12:44:55.065Z,40.20
2022-12-25T12:45:55.063Z,44.70
2022-12-25T12:46:55.075Z,41.70
2022-12-25T12:47:55.040Z,42.70
2022-12-25T12:48:55.024Z,50.50
2022-12-25T12:49:55.022Z,40.00